Terminal Aerodrome Forecast
Issued by NWS

Home | Current Version | Previous Version | Text Only | Print | Product List | Glossary On
Versions: 1 2 3 4 5 6 7 8 9 10 11 12 13 14 15
038
FTUS43 KAPX 251120
TAFTVC
TAF
KTVC 251120Z 2512/2612 21008KT P6SM SCT250 WS013/25035KT
     FM251400 22010G18KT P6SM SCT250
     FM252300 25008KT P6SM BKN140
     FM260100 VRB04KT P6SM VCSH SCT060 BKN100
     FM260600 23006KT P6SM BKN100
     FM260900 20006KT P6SM SCT009 BKN100=

USA.gov is the U.S. government's official web portal to all federal, state and local government web resources and services.